createdAt,value
2023-03-31T00:01:52.968Z,5.93
2023-03-31T00:04:24.463Z,3.53
2023-03-31T00:06:54.352Z,4.40
2023-03-31T00:09:22.177Z,4.57
2023-03-31T00:11:49.938Z,4.70
2023-03-31T00:14:17.980Z,7.38
2023-03-31T00:16:45.370Z,5.78
2023-03-31T00:19:18.184Z,8.57
2023-03-31T00:21:46.763Z,4.05
2023-03-31T00:24:14.748Z,3.58
2023-03-31T00:26:41.479Z,5.15
2023-03-31T00:29:10.272Z,4.65
2023-03-31T00:31:38.781Z,4.50
2023-03-31T00:34:06.342Z,7.65
2023-03-31T00:36:37.012Z,5.00
2023-03-31T00:39:09.559Z,3.65
2023-03-31T00:41:39.297Z,3.78
2023-03-31T00:44:14.705Z,4.00
2023-03-31T00:46:55.780Z,6.65
2023-03-31T00:49:25.971Z,7.43
2023-03-31T00:51:56.396Z,3.75
2023-03-31T00:54:26.624Z,5.43
2023-03-31T00:56:58.263Z,5.95
2023-03-31T01:01:59.309Z,6.63
2023-03-31T01:04:26.451Z,5.93
2023-03-31T01:07:16.940Z,4.85
2023-03-31T01:09:47.392Z,5.20
2023-03-31T01:12:17.029Z,6.40
2023-03-31T01:14:43.932Z,3.83
2023-03-31T01:17:10.768Z,3.10
2023-03-31T01:19:47.551Z,6.07
2023-03-31T01:22:51.526Z,5.28
2023-03-31T01:25:27.101Z,4.20
2023-03-31T01:28:03.155Z,4.00
2023-03-31T01:30:52.947Z,6.78
2023-03-31T01:33:39.704Z,5.78
2023-03-31T01:36:16.288Z,6.25
2023-03-31T01:38:55.185Z,4.22
2023-03-31T01:41:50.479Z,4.38
2023-03-31T01:44:40.510Z,4.75
2023-03-31T01:47:14.354Z,6.05
2023-03-31T01:50:35.679Z,4.65
2023-03-31T01:53:06.292Z,6.95
2023-03-31T01:55:40.621Z,10.88
2023-03-31T01:58:11.553Z,6.55
2023-03-31T02:00:42.946Z,9.55
2023-03-31T02:03:17.867Z,6.40
2023-03-31T02:05:51.595Z,5.80
2023-03-31T02:08:25.505Z,6.57
2023-03-31T02:10:53.713Z,4.93
2023-03-31T02:13:23.328Z,6.80
2023-03-31T02:15:58.099Z,8.93
2023-03-31T02:18:30.667Z,5.72
2023-03-31T02:20:59.407Z,3.95
2023-03-31T02:23:32.033Z,5.53
2023-03-31T02:26:24.079Z,4.53
2023-03-31T02:28:51.062Z,4.97
2023-03-31T02:31:56.432Z,4.47
2023-03-31T02:34:23.663Z,5.15
2023-03-31T02:36:50.584Z,4.88
2023-03-31T02:39:21.711Z,2.88
2023-03-31T02:41:48.292Z,3.55
2023-03-31T02:44:17.362Z,6.03
2023-03-31T02:46:45.813Z,5.95
2023-03-31T02:49:14.976Z,6.13
2023-03-31T02:52:07.960Z,4.50
2023-03-31T02:54:50.800Z,3.85
2023-03-31T02:57:41.807Z,6.22
2023-03-31T03:00:30.287Z,3.05
2023-03-31T03:03:31.251Z,5.70
2023-03-31T03:06:32.165Z,6.90
2023-03-31T03:09:45.524Z,6.68
2023-03-31T03:12:23.071Z,4.45
2023-03-31T03:15:07.068Z,5.00
2023-03-31T03:17:33.932Z,4.32
2023-03-31T03:20:07.858Z,6.47
2023-03-31T03:22:36.018Z,4.53
2023-03-31T03:25:02.956Z,3.45
2023-03-31T03:27:30.300Z,9.82
2023-03-31T03:29:56.992Z,8.60
2023-03-31T03:32:23.838Z,3.28
2023-03-31T03:34:50.392Z,9.55
2023-03-31T03:37:16.971Z,4.75
2023-03-31T03:39:43.623Z,4.15
2023-03-31T03:42:10.252Z,5.32
2023-03-31T03:44:36.799Z,5.93
2023-03-31T03:47:03.654Z,11.55
2023-03-31T03:49:30.504Z,5.20
2023-03-31T03:51:57.168Z,5.97
2023-03-31T03:54:23.906Z,6.95
2023-03-31T03:56:50.503Z,4.85
2023-03-31T03:59:17.130Z,5.93
2023-03-31T04:01:43.714Z,4.00
2023-03-31T04:04:10.390Z,6.38
2023-03-31T04:06:37.072Z,5.65
2023-03-31T04:09:04.076Z,5.93
2023-03-31T04:11:31.124Z,3.75
2023-03-31T04:13:57.727Z,5.57
2023-03-31T04:16:25.520Z,7.38
2023-03-31T04:18:56.777Z,6.28
2023-03-31T04:21:23.817Z,4.13
2023-03-31T04:24:07.484Z,7.40
2023-03-31T04:26:53.145Z,5.15
2023-03-31T04:29:22.415Z,9.30
2023-03-31T04:31:50.823Z,5.38
2023-03-31T04:34:17.514Z,7.78
2023-03-31T04:36:49.375Z,5.30
2023-03-31T04:39:18.600Z,7.03
2023-03-31T04:41:45.439Z,6.85
2023-03-31T04:44:12.271Z,4.57
2023-03-31T04:46:38.799Z,6.95
2023-03-31T04:49:06.011Z,8.93
2023-03-31T04:51:32.973Z,9.65
2023-03-31T04:53:59.764Z,6.88
2023-03-31T04:56:26.825Z,7.45
2023-03-31T04:58:53.617Z,11.40
2023-03-31T05:01:20.507Z,7.55
2023-03-31T05:03:47.985Z,6.47
2023-03-31T05:06:16.368Z,4.03
2023-03-31T05:08:43.942Z,9.70
2023-03-31T05:11:11.127Z,8.68
2023-03-31T05:13:38.048Z,5.53
2023-03-31T05:16:09.797Z,8.68
2023-03-31T05:18:36.831Z,4.30
2023-03-31T05:21:14.385Z,6.65
2023-03-31T05:23:41.847Z,5.43
2023-03-31T05:26:09.254Z,5.97
2023-03-31T05:28:36.487Z,6.90
2023-03-31T05:31:04.586Z,5.68
2023-03-31T05:33:31.909Z,6.38
2023-03-31T05:36:00.376Z,6.95
2023-03-31T05:38:31.859Z,5.60
2023-03-31T05:40:58.631Z,4.47
2023-03-31T05:43:25.388Z,4.25
2023-03-31T05:45:52.225Z,5.68
2023-03-31T05:48:18.969Z,8.05
2023-03-31T05:50:45.976Z,6.68
2023-03-31T05:53:12.573Z,5.97
2023-03-31T05:55:39.373Z,4.95
2023-03-31T05:58:06.830Z,7.78
2023-03-31T06:00:33.854Z,4.68
2023-03-31T06:03:00.524Z,5.20
2023-03-31T06:05:27.636Z,6.95
2023-03-31T06:07:54.330Z,15.77
2023-03-31T06:10:20.907Z,4.70
2023-03-31T06:12:47.717Z,5.40
2023-03-31T06:15:14.267Z,6.35
2023-03-31T06:17:41.226Z,7.10
2023-03-31T06:20:20.163Z,5.22
2023-03-31T06:22:51.235Z,5.25
2023-03-31T06:25:17.997Z,8.32
2023-03-31T06:27:44.755Z,5.75
2023-03-31T06:30:12.009Z,6.53
2023-03-31T06:32:38.576Z,5.10
2023-03-31T06:35:05.981Z,5.03
2023-03-31T06:37:32.632Z,5.28
2023-03-31T06:39:59.195Z,6.60
2023-03-31T06:42:26.239Z,6.95
2023-03-31T06:44:52.819Z,4.07
2023-03-31T06:47:19.579Z,4.70
2023-03-31T06:49:46.455Z,6.70
2023-03-31T06:52:13.135Z,6.35
2023-03-31T06:54:39.723Z,8.95
2023-03-31T06:57:06.334Z,4.95
2023-03-31T06:59:33.026Z,4.90
2023-03-31T07:01:59.684Z,7.80
2023-03-31T07:04:29.378Z,3.97
2023-03-31T07:06:57.852Z,6.32
2023-03-31T07:09:24.423Z,4.72
2023-03-31T07:11:50.964Z,9.88
2023-03-31T07:14:17.737Z,5.63
2023-03-31T07:16:44.522Z,5.57
2023-03-31T07:19:11.436Z,6.03
2023-03-31T07:21:38.363Z,7.15
2023-03-31T07:24:05.283Z,4.07
2023-03-31T07:26:32.116Z,4.20
2023-03-31T07:28:59.196Z,6.47
2023-03-31T07:31:26.391Z,6.55
2023-03-31T07:33:53.282Z,5.88
2023-03-31T07:36:20.751Z,6.28
2023-03-31T07:38:49.180Z,7.82
2023-03-31T07:41:20.983Z,7.65
2023-03-31T07:43:48.998Z,7.90
2023-03-31T07:46:25.017Z,5.82
2023-03-31T07:48:53.534Z,7.50
2023-03-31T07:51:22.851Z,6.85
2023-03-31T07:53:52.060Z,8.05
2023-03-31T07:56:23.914Z,7.75
2023-03-31T07:58:56.169Z,4.70
2023-03-31T08:01:26.428Z,6.78
2023-03-31T08:03:55.372Z,7.35
2023-03-31T08:06:24.450Z,4.18
2023-03-31T08:08:51.432Z,6.75
2023-03-31T08:11:18.920Z,7.65
2023-03-31T08:13:45.727Z,6.38
2023-03-31T08:16:12.606Z,6.57
2023-03-31T08:18:39.215Z,4.78
2023-03-31T08:21:06.411Z,5.10
2023-03-31T08:23:33.104Z,3.20
2023-03-31T08:26:18.556Z,7.05
2023-03-31T08:28:46.485Z,4.75
2023-03-31T08:31:16.274Z,4.72
2023-03-31T08:33:43.497Z,4.43
2023-03-31T08:36:11.102Z,4.97
2023-03-31T08:38:46.006Z,4.05
2023-03-31T08:41:36.689Z,3.90
2023-03-31T08:44:14.483Z,3.33
2023-03-31T08:46:43.214Z,4.78
2023-03-31T08:49:16.617Z,5.57
2023-03-31T08:52:19.368Z,5.10
2023-03-31T08:54:55.262Z,3.42
2023-03-31T08:57:32.059Z,4.20
2023-03-31T09:00:06.823Z,3.72
2023-03-31T09:03:12.342Z,6.28
2023-03-31T09:06:00.039Z,3.58
2023-03-31T09:08:36.293Z,4.10
2023-03-31T09:11:11.929Z,2.90
2023-03-31T09:13:59.095Z,5.05
2023-03-31T09:16:38.798Z,4.55
2023-03-31T09:19:18.263Z,3.35
2023-03-31T09:21:49.853Z,3.40
2023-03-31T09:26:55.592Z,2.30
2023-03-31T09:29:43.748Z,3.00
2023-03-31T09:32:19.039Z,3.10
2023-03-31T09:34:47.076Z,2.50
2023-03-31T09:37:14.070Z,3.03
2023-03-31T09:39:41.228Z,3.20
2023-03-31T09:42:12.614Z,2.55
2023-03-31T09:44:42.083Z,3.75
2023-03-31T09:47:40.601Z,3.20
2023-03-31T09:50:09.338Z,2.47
2023-03-31T09:52:40.717Z,2.55
2023-03-31T09:55:28.381Z,3.75
2023-03-31T09:58:07.465Z,4.20
2023-03-31T10:00:34.967Z,3.00
2023-03-31T10:03:07.184Z,2.03
2023-03-31T10:05:41.296Z,2.10
2023-03-31T10:08:17.140Z,2.70
2023-03-31T10:10:50.195Z,7.05
2023-03-31T10:13:20.811Z,2.80
2023-03-31T10:15:47.382Z,2.70
2023-03-31T10:18:16.544Z,3.42
2023-03-31T10:20:53.462Z,4.45
2023-03-31T10:23:33.183Z,3.28
2023-03-31T10:26:02.570Z,3.70
2023-03-31T10:28:34.379Z,3.92
2023-03-31T10:31:01.733Z,1.90
2023-03-31T10:33:31.849Z,2.83
2023-03-31T10:36:00.534Z,4.38
2023-03-31T10:38:30.604Z,4.03
2023-03-31T10:40:59.520Z,7.50
2023-03-31T10:43:50.437Z,4.78
2023-03-31T10:46:17.682Z,2.72
2023-03-31T10:48:45.989Z,3.47
2023-03-31T10:51:16.767Z,2.85
2023-03-31T10:53:53.594Z,4.25
2023-03-31T10:56:35.502Z,4.90
2023-03-31T10:59:13.975Z,3.08
2023-03-31T11:01:45.741Z,4.88
2023-03-31T11:04:33.820Z,3.00
2023-03-31T11:07:03.646Z,4.35
2023-03-31T11:10:11.492Z,1.20
2023-03-31T11:13:00.320Z,3.92
2023-03-31T11:15:35.939Z,4.20
2023-03-31T11:18:14.468Z,3.92
2023-03-31T11:20:51.387Z,2.40
2023-03-31T11:23:31.844Z,4.32
2023-03-31T11:26:14.587Z,1.35
2023-03-31T11:29:02.595Z,1.60
2023-03-31T11:31:32.543Z,1.70
2023-03-31T11:34:17.839Z,1.13
2023-03-31T11:36:52.827Z,0.82
2023-03-31T11:39:38.946Z,6.13
2023-03-31T11:42:21.649Z,2.17
2023-03-31T11:44:53.215Z,0.63
2023-03-31T11:47:25.666Z,1.10
2023-03-31T11:50:00.012Z,1.75
2023-03-31T11:52:33.940Z,1.95
2023-03-31T11:55:03.931Z,0.98
2023-03-31T11:57:41.617Z,2.65
2023-03-31T12:00:21.042Z,0.95
2023-03-31T12:02:59.699Z,1.75
2023-03-31T12:05:28.965Z,0.60
2023-03-31T12:08:22.176Z,0.98
2023-03-31T12:10:55.826Z,1.50
2023-03-31T12:13:35.898Z,1.10
2023-03-31T12:16:12.824Z,2.78
2023-03-31T12:18:49.808Z,2.05
2023-03-31T12:21:17.339Z,3.30
2023-03-31T12:23:50.362Z,2.47
2023-03-31T12:26:42.296Z,5.35
2023-03-31T12:29:36.379Z,1.60
2023-03-31T12:32:14.153Z,1.85
2023-03-31T12:35:10.988Z,2.55
2023-03-31T12:37:56.679Z,3.75
2023-03-31T12:40:57.077Z,4.00
2023-03-31T12:43:42.372Z,1.27
2023-03-31T12:46:36.302Z,3.67
2023-03-31T12:49:23.363Z,3.22
2023-03-31T12:51:59.842Z,3.35
2023-03-31T12:54:44.412Z,1.05
2023-03-31T12:57:11.264Z,2.03
2023-03-31T12:59:41.001Z,0.75
2023-03-31T13:02:16.619Z,0.77
2023-03-31T13:04:44.330Z,1.05
2023-03-31T13:07:28.207Z,0.93
2023-03-31T13:10:22.420Z,2.40
2023-03-31T13:13:11.958Z,1.77
2023-03-31T13:15:38.866Z,2.83
2023-03-31T13:18:07.520Z,1.42
2023-03-31T13:20:39.270Z,2.63
2023-03-31T13:25:45.479Z,2.78
2023-03-31T13:28:34.403Z,1.42
2023-03-31T13:31:02.476Z,1.15
2023-03-31T13:33:47.156Z,1.58
2023-03-31T13:36:32.598Z,1.27
2023-03-31T13:39:38.034Z,0.98
2023-03-31T13:42:26.047Z,1.10
2023-03-31T13:44:55.789Z,0.85
2023-03-31T13:47:54.287Z,0.77
2023-03-31T13:50:38.410Z,3.47
2023-03-31T13:53:20.421Z,1.95
2023-03-31T13:56:01.116Z,1.80
2023-03-31T13:58:58.429Z,3.35
2023-03-31T14:01:44.780Z,1.17
2023-03-31T14:04:51.380Z,4.15
2023-03-31T14:07:22.540Z,2.03
2023-03-31T14:09:52.513Z,0.55
2023-03-31T14:12:31.214Z,2.88
2023-03-31T14:14:58.138Z,1.67
2023-03-31T14:17:35.915Z,1.40
2023-03-31T14:20:26.090Z,1.60
2023-03-31T14:22:56.492Z,1.15
2023-03-31T14:25:50.327Z,0.32
2023-03-31T14:28:18.668Z,0.47
2023-03-31T14:31:06.611Z,1.25
2023-03-31T14:33:50.782Z,1.30
2023-03-31T14:36:39.588Z,0.73
2023-03-31T14:39:10.850Z,0.50
2023-03-31T14:41:38.100Z,0.70
2023-03-31T14:44:12.746Z,0.40
2023-03-31T14:46:39.947Z,2.78
2023-03-31T14:49:18.560Z,0.20
2023-03-31T14:51:45.824Z,1.80
2023-03-31T14:54:18.407Z,0.90
2023-03-31T14:56:49.910Z,1.70
2023-03-31T14:59:23.201Z,2.38
2023-03-31T15:01:51.323Z,0.68
2023-03-31T15:04:28.800Z,3.40
2023-03-31T15:07:04.993Z,2.42
2023-03-31T15:09:35.452Z,1.48
2023-03-31T15:12:12.232Z,0.57
2023-03-31T15:15:04.086Z,1.55
2023-03-31T15:17:37.495Z,2.38
2023-03-31T15:20:22.216Z,3.50
2023-03-31T15:22:48.798Z,0.98
2023-03-31T15:25:18.393Z,2.25
2023-03-31T15:27:54.051Z,1.20
2023-03-31T15:30:25.585Z,0.85
2023-03-31T15:35:34.133Z,1.33
2023-03-31T15:38:05.253Z,1.65
2023-03-31T15:40:39.757Z,0.85
2023-03-31T15:43:31.292Z,3.22
2023-03-31T15:46:02.050Z,2.85
2023-03-31T15:48:36.751Z,1.20
2023-03-31T15:51:28.555Z,2.60
2023-03-31T15:56:38.219Z,3.05
2023-03-31T15:59:06.341Z,1.33
2023-03-31T16:01:38.961Z,4.38
2023-03-31T16:04:09.592Z,0.93
2023-03-31T16:06:58.690Z,0.80
2023-03-31T16:09:41.648Z,1.08
2023-03-31T16:12:17.184Z,2.58
2023-03-31T16:14:54.065Z,1.95
2023-03-31T16:17:29.385Z,2.25
2023-03-31T16:20:02.198Z,6.68
2023-03-31T16:22:37.368Z,4.55
2023-03-31T16:25:10.342Z,1.10
2023-03-31T16:27:40.966Z,2.30
2023-03-31T16:30:11.436Z,0.90
2023-03-31T16:32:38.274Z,1.95
2023-03-31T16:35:06.242Z,1.90
2023-03-31T16:37:33.056Z,1.15
2023-03-31T16:39:59.674Z,3.50
2023-03-31T16:42:27.249Z,2.15
2023-03-31T16:45:12.724Z,0.30
2023-03-31T16:47:43.668Z,1.02
2023-03-31T16:50:12.018Z,5.28
2023-03-31T16:52:39.800Z,0.47
2023-03-31T16:55:06.746Z,1.48
2023-03-31T16:57:33.573Z,0.25
2023-03-31T17:00:00.558Z,0.20
2023-03-31T17:02:27.301Z,0.65
2023-03-31T17:04:56.573Z,0.20
2023-03-31T17:07:26.166Z,0.15
2023-03-31T17:09:53.122Z,0.45
2023-03-31T17:12:19.646Z,0.20
2023-03-31T17:14:46.632Z,0.43
2023-03-31T17:17:14.807Z,0.10
2023-03-31T17:19:43.298Z,0.20
2023-03-31T17:22:09.853Z,0.38
2023-03-31T17:24:36.737Z,0.20
2023-03-31T17:27:03.375Z,0.28
2023-03-31T17:29:30.273Z,0.17
2023-03-31T17:31:57.184Z,2.60
2023-03-31T17:34:24.024Z,2.45
2023-03-31T17:36:51.603Z,0.95
2023-03-31T17:39:18.479Z,0.20
2023-03-31T17:41:45.055Z,2.55
2023-03-31T17:44:12.359Z,1.08
2023-03-31T17:46:39.148Z,0.35
2023-03-31T17:49:05.749Z,1.70
2023-03-31T17:51:34.545Z,6.20
2023-03-31T17:54:03.311Z,0.90
2023-03-31T17:56:30.163Z,2.25
2023-03-31T17:58:57.385Z,0.47
2023-03-31T18:01:24.053Z,0.90
2023-03-31T18:03:50.754Z,0.20
2023-03-31T18:06:17.929Z,2.50
2023-03-31T18:08:44.793Z,1.27
2023-03-31T18:11:13.252Z,0.47
2023-03-31T18:13:40.537Z,0.20
2023-03-31T18:16:09.513Z,2.28
2023-03-31T18:18:37.911Z,0.32
2023-03-31T18:21:07.528Z,1.67
2023-03-31T18:23:35.028Z,2.38
2023-03-31T18:26:02.380Z,0.20
2023-03-31T18:28:29.113Z,1.42
2023-03-31T18:30:56.476Z,0.80
2023-03-31T18:33:23.513Z,0.45
2023-03-31T18:35:50.388Z,0.17
2023-03-31T18:38:18.597Z,0.25
2023-03-31T18:40:53.410Z,4.13
2023-03-31T18:43:24.461Z,0.70
2023-03-31T18:45:53.809Z,0.50
2023-03-31T18:48:22.095Z,1.70
2023-03-31T18:50:51.711Z,1.50
2023-03-31T18:53:19.479Z,8.10
2023-03-31T18:55:57.217Z,6.93
2023-03-31T18:58:25.938Z,2.40
2023-03-31T19:00:52.677Z,2.22
2023-03-31T19:03:19.359Z,1.40
2023-03-31T19:05:46.647Z,10.98
2023-03-31T19:08:13.514Z,0.88
2023-03-31T19:10:40.404Z,1.48
2023-03-31T19:13:07.693Z,0.90
2023-03-31T19:15:37.133Z,1.85
2023-03-31T19:18:04.245Z,1.10
2023-03-31T19:20:30.970Z,1.70
2023-03-31T19:22:57.560Z,0.73
2023-03-31T19:25:24.235Z,2.63
2023-03-31T19:27:51.693Z,1.55
2023-03-31T19:30:21.578Z,0.50
2023-03-31T19:32:49.256Z,3.88
2023-03-31T19:35:18.157Z,5.35
2023-03-31T19:37:45.818Z,2.17
2023-03-31T19:40:12.531Z,1.45
2023-03-31T19:42:39.422Z,2.28
2023-03-31T19:45:06.689Z,1.48
2023-03-31T19:47:33.428Z,1.17
2023-03-31T19:50:00.649Z,3.78
2023-03-31T19:52:28.893Z,3.05
2023-03-31T19:54:55.429Z,0.60
2023-03-31T19:57:22.609Z,4.22
2023-03-31T19:59:49.715Z,1.42
2023-03-31T20:02:16.468Z,2.78
2023-03-31T20:04:43.826Z,1.25
2023-03-31T20:07:10.547Z,3.60
2023-03-31T20:09:37.207Z,3.03
2023-03-31T20:12:04.259Z,1.00
2023-03-31T20:14:31.027Z,2.95
2023-03-31T20:17:00.856Z,3.35
2023-03-31T20:19:27.840Z,10.50
2023-03-31T20:21:56.013Z,4.57
2023-03-31T20:24:22.695Z,1.60
2023-03-31T20:26:49.584Z,5.97
2023-03-31T20:29:16.571Z,6.28
2023-03-31T20:31:43.219Z,2.13
2023-03-31T20:34:16.592Z,2.05
2023-03-31T20:36:45.685Z,4.13
2023-03-31T20:39:14.324Z,5.88
2023-03-31T20:41:41.463Z,1.90
2023-03-31T20:44:12.663Z,6.40
2023-03-31T20:46:41.746Z,5.07
2023-03-31T20:49:08.494Z,5.05
2023-03-31T20:51:39.857Z,1.65
2023-03-31T20:54:07.849Z,3.72
2023-03-31T20:56:37.855Z,3.72
2023-03-31T20:59:06.137Z,3.08
2023-03-31T21:01:34.858Z,4.28
2023-03-31T21:04:03.206Z,0.80
2023-03-31T21:06:36.475Z,2.65
2023-03-31T21:09:03.222Z,0.90
2023-03-31T21:11:29.960Z,2.55
2023-03-31T21:13:56.588Z,0.35
2023-03-31T21:16:23.695Z,2.78
2023-03-31T21:18:59.329Z,1.02
2023-03-31T21:21:27.317Z,3.08
2023-03-31T21:23:54.490Z,1.52
2023-03-31T21:26:22.522Z,1.38
2023-03-31T21:28:53.983Z,2.22
2023-03-31T21:31:24.148Z,0.30
2023-03-31T21:33:52.332Z,1.70
2023-03-31T21:36:22.738Z,5.07
2023-03-31T21:38:51.996Z,7.20
2023-03-31T21:41:24.596Z,3.15
2023-03-31T21:43:51.649Z,0.80
2023-03-31T21:46:21.167Z,0.77
2023-03-31T21:48:48.806Z,1.70
2023-03-31T21:51:16.454Z,0.10
2023-03-31T21:53:43.009Z,0.17
2023-03-31T21:56:09.854Z,0.25
2023-03-31T21:58:36.756Z,1.15
2023-03-31T22:01:04.620Z,2.33
2023-03-31T22:03:34.596Z,0.73
2023-03-31T22:06:03.633Z,1.58
2023-03-31T22:08:31.636Z,2.28
2023-03-31T22:11:00.464Z,0.22
2023-03-31T22:13:29.188Z,2.50
2023-03-31T22:15:56.237Z,0.47
2023-03-31T22:18:23.232Z,1.08
2023-03-31T22:20:50.343Z,0.75
2023-03-31T22:23:17.410Z,1.58
2023-03-31T22:25:44.230Z,0.85
2023-03-31T22:28:11.090Z,2.40
2023-03-31T22:30:37.895Z,0.98
2023-03-31T22:33:04.744Z,2.25
2023-03-31T22:35:31.764Z,0.75
2023-03-31T22:37:58.700Z,0.40
2023-03-31T22:40:25.610Z,0.13
2023-03-31T22:42:54.673Z,0.20
2023-03-31T22:45:21.454Z,0.63
2023-03-31T22:47:48.531Z,0.40
2023-03-31T22:50:15.581Z,0.50
2023-03-31T22:52:42.389Z,0.57
2023-03-31T22:55:09.190Z,1.25
2023-03-31T22:57:36.166Z,0.20
2023-03-31T23:00:04.134Z,0.35
2023-03-31T23:02:30.940Z,0.10
2023-03-31T23:04:57.739Z,6.75
2023-03-31T23:07:24.287Z,1.33
2023-03-31T23:09:51.127Z,0.98
2023-03-31T23:12:17.713Z,1.85
2023-03-31T23:14:44.373Z,0.20
2023-03-31T23:17:11.294Z,0.60
2023-03-31T23:19:38.809Z,0.50
2023-03-31T23:22:06.171Z,0.50
2023-03-31T23:24:36.171Z,0.20
2023-03-31T23:27:02.706Z,0.50
2023-03-31T23:29:30.818Z,0.65
2023-03-31T23:31:57.740Z,0.22
2023-03-31T23:34:24.544Z,0.28
2023-03-31T23:36:52.640Z,0.17
2023-03-31T23:39:19.254Z,2.45
2023-03-31T23:41:45.818Z,0.90
2023-03-31T23:44:13.072Z,0.10
2023-03-31T23:46:41.960Z,0.20
2023-03-31T23:49:09.392Z,1.27
2023-03-31T23:51:36.271Z,0.77
2023-03-31T23:54:03.222Z,1.65
2023-03-31T23:56:30.702Z,0.57
2023-03-31T23:58:57.383Z,0.80
